sensor_id;sensor_type;location;lat;lon;timestamp;P1;durP1;ratioP1;P2;durP2;ratioP2
40048;SDS011;54524;55.740;37.544;2022-10-23T00:01:10;8.6;;;5;;
40048;SDS011;54524;55.740;37.544;2022-10-23T00:02:11;8.3;;;5;;
40048;SDS011;54524;55.740;37.544;2022-10-23T00:03:12;8.3;;;5;;
40048;SDS011;54524;55.740;37.544;2022-10-23T00:04:13;8.1;;;4.4;;
40048;SDS011;54524;55.740;37.544;2022-10-23T00:05:14;7.9;;;4.4;;
40048;SDS011;54524;55.740;37.544;2022-10-23T00:06:15;7.8;;;4.3;;
40048;SDS011;54524;55.740;37.544;2022-10-23T00:07:16;8.2;;;4.6;;
40048;SDS011;54524;55.740;37.544;2022-10-23T00:08:17;7.9;;;4.5;;
40048;SDS011;54524;55.740;37.544;2022-10-23T00:09:19;7.4;;;4.5;;
40048;SDS011;54524;55.740;37.544;2022-10-23T00:11:05;7.5;;;4.7;;
40048;SDS011;54524;55.740;37.544;2022-10-23T00:12:06;7.3;;;4.6;;
40048;SDS011;54524;55.740;37.544;2022-10-23T00:13:06;7.5;;;4.7;;
40048;SDS011;54524;55.740;37.544;2022-10-23T00:14:07;7.4;;;4.7;;
40048;SDS011;54524;55.740;37.544;2022-10-23T00:15:08;7.5;;;4.7;;
40048;SDS011;54524;55.740;37.544;2022-10-23T00:16:09;24.3;;;15.1;;
40048;SDS011;54524;55.740;37.544;2022-10-23T00:17:10;24.1;;;15.1;;
40048;SDS011;54524;55.740;37.544;2022-10-23T00:18:13;25.1;;;15.3;;
40048;SDS011;54524;55.740;37.544;2022-10-23T00:19:14;9.5;;;5.3;;
40048;SDS011;54524;55.740;37.544;2022-10-23T00:21:02;9.3;;;5.2;;
40048;SDS011;54524;55.740;37.544;2022-10-23T00:22:03;7.8;;;4.5;;
40048;SDS011;54524;55.740;37.544;2022-10-23T00:23:05;7.9;;;4.5;;
40048;SDS011;54524;55.740;37.544;2022-10-23T00:24:06;8;;;4.6;;
40048;SDS011;54524;55.740;37.544;2022-10-23T00:25:08;8.3;;;5.1;;
40048;SDS011;54524;55.740;37.544;2022-10-23T00:26:09;8.1;;;5.1;;
40048;SDS011;54524;55.740;37.544;2022-10-23T00:27:14;7.7;;;5;;
40048;SDS011;54524;55.740;37.544;2022-10-23T00:28:15;7.1;;;4.8;;
40048;SDS011;54524;55.740;37.544;2022-10-23T00:29:15;7.1;;;4.7;;
40048;SDS011;54524;55.740;37.544;2022-10-23T00:31:04;6.7;;;4.4;;
40048;SDS011;54524;55.740;37.544;2022-10-23T00:32:04;6.7;;;4.4;;
40048;SDS011;54524;55.740;37.544;2022-10-23T00:33:05;6.6;;;4.4;;
40048;SDS011;54524;55.740;37.544;2022-10-23T00:34:06;9;;;4.9;;
40048;SDS011;54524;55.740;37.544;2022-10-23T00:35:07;9.1;;;4.9;;
40048;SDS011;54524;55.740;37.544;2022-10-23T00:36:09;9.1;;;4.9;;
40048;SDS011;54524;55.740;37.544;2022-10-23T00:37:11;7;;;4.6;;
40048;SDS011;54524;55.740;37.544;2022-10-23T00:38:11;6.7;;;4.7;;
40048;SDS011;54524;55.740;37.544;2022-10-23T00:39:12;6.7;;;4.7;;
40048;SDS011;54524;55.740;37.544;2022-10-23T00:41:03;6.4;;;4.4;;
40048;SDS011;54524;55.740;37.544;2022-10-23T00:42:04;6.4;;;4.4;;
40048;SDS011;54524;55.740;37.544;2022-10-23T00:43:05;6.8;;;4.7;;
40048;SDS011;54524;55.740;37.544;2022-10-23T00:44:07;6.3;;;4.8;;
40048;SDS011;54524;55.740;37.544;2022-10-23T00:45:11;6.3;;;4.8;;
40048;SDS011;54524;55.740;37.544;2022-10-23T00:46:11;7.4;;;4.3;;
40048;SDS011;54524;55.740;37.544;2022-10-23T00:47:12;7.3;;;4.3;;
40048;SDS011;54524;55.740;37.544;2022-10-23T00:48:13;7.4;;;4.3;;
40048;SDS011;54524;55.740;37.544;2022-10-23T00:49:14;7.4;;;4.3;;
40048;SDS011;54524;55.740;37.544;2022-10-23T00:51:03;8.6;;;5;;
40048;SDS011;54524;55.740;37.544;2022-10-23T00:52:04;8.5;;;5;;
40048;SDS011;54524;55.740;37.544;2022-10-23T00:53:06;8.2;;;4.6;;
40048;SDS011;54524;55.740;37.544;2022-10-23T00:54:07;6.8;;;4.4;;
40048;SDS011;54524;55.740;37.544;2022-10-23T00:55:08;8.3;;;4.5;;
40048;SDS011;54524;55.740;37.544;2022-10-23T00:56:09;6.7;;;4.6;;
40048;SDS011;54524;55.740;37.544;2022-10-23T00:57:11;6.7;;;4.5;;
40048;SDS011;54524;55.740;37.544;2022-10-23T00:58:12;6.9;;;4.5;;
40048;SDS011;54524;55.740;37.544;2022-10-23T00:59:12;8.8;;;4.6;;
40048;SDS011;54524;55.740;37.544;2022-10-23T01:01:13;8.8;;;4.7;;
40048;SDS011;54524;55.740;37.544;2022-10-23T01:02:14;7.6;;;4.4;;
40048;SDS011;54524;55.740;37.544;2022-10-23T01:03:16;7.5;;;4.4;;
40048;SDS011;54524;55.740;37.544;2022-10-23T01:04:17;7.5;;;4.5;;
40048;SDS011;54524;55.740;37.544;2022-10-23T01:05:21;8.4;;;4.5;;
40048;SDS011;54524;55.740;37.544;2022-10-23T01:06:27;8.5;;;4.6;;
40048;SDS011;54524;55.740;37.544;2022-10-23T01:07:32;8.6;;;4.6;;
40048;SDS011;54524;55.740;37.544;2022-10-23T01:08:34;9.7;;;4.5;;
40048;SDS011;54524;55.740;37.544;2022-10-23T01:09:38;9.6;;;4.4;;
40048;SDS011;54524;55.740;37.544;2022-10-23T01:11:03;8.1;;;4.6;;
40048;SDS011;54524;55.740;37.544;2022-10-23T01:12:08;8.1;;;4.7;;
40048;SDS011;54524;55.740;37.544;2022-10-23T01:13:11;7.2;;;4.7;;
40048;SDS011;54524;55.740;37.544;2022-10-23T01:14:15;8.2;;;5.1;;
40048;SDS011;54524;55.740;37.544;2022-10-23T01:15:17;8.2;;;5.1;;
40048;SDS011;54524;55.740;37.544;2022-10-23T01:16:21;8.3;;;5.1;;
40048;SDS011;54524;55.740;37.544;2022-10-23T01:17:24;8.2;;;4.7;;
40048;SDS011;54524;55.740;37.544;2022-10-23T01:18:30;8;;;4.6;;
40048;SDS011;54524;55.740;37.544;2022-10-23T01:19:41;8.5;;;4.7;;
40048;SDS011;54524;55.740;37.544;2022-10-23T01:21:03;7.9;;;4.5;;
40048;SDS011;54524;55.740;37.544;2022-10-23T01:22:08;7.8;;;4.5;;
40048;SDS011;54524;55.740;37.544;2022-10-23T01:23:21;7.9;;;4.7;;
40048;SDS011;54524;55.740;37.544;2022-10-23T01:24:27;8;;;4.7;;
40048;SDS011;54524;55.740;37.544;2022-10-23T01:25:34;7.9;;;4.6;;
40048;SDS011;54524;55.740;37.544;2022-10-23T01:26:44;11.1;;;5.2;;
40048;SDS011;54524;55.740;37.544;2022-10-23T01:27:50;10.9;;;5.1;;
40048;SDS011;54524;55.740;37.544;2022-10-23T01:28:53;9.4;;;5.1;;
40048;SDS011;54524;55.740;37.544;2022-10-23T01:30:00;8.6;;;4.6;;
40048;SDS011;54524;55.740;37.544;2022-10-23T01:31:05;8.2;;;4.7;;
40048;SDS011;54524;55.740;37.544;2022-10-23T01:32:08;8.2;;;4.7;;
40048;SDS011;54524;55.740;37.544;2022-10-23T01:33:10;7.3;;;4.8;;
40048;SDS011;54524;55.740;37.544;2022-10-23T01:34:13;7.1;;;4.8;;
40048;SDS011;54524;55.740;37.544;2022-10-23T01:35:15;11.2;;;4.9;;
40048;SDS011;54524;55.740;37.544;2022-10-23T01:36:19;11.2;;;4.9;;
40048;SDS011;54524;55.740;37.544;2022-10-23T01:37:22;11.2;;;4.9;;
40048;SDS011;54524;55.740;37.544;2022-10-23T01:38:24;7.1;;;4.9;;
40048;SDS011;54524;55.740;37.544;2022-10-23T01:39:26;7.6;;;5;;
40048;SDS011;54524;55.740;37.544;2022-10-23T01:41:05;7.5;;;5;;
40048;SDS011;54524;55.740;37.544;2022-10-23T01:42:07;9.7;;;5.2;;
40048;SDS011;54524;55.740;37.544;2022-10-23T01:43:10;9.8;;;5.1;;
40048;SDS011;54524;55.740;37.544;2022-10-23T01:44:13;10;;;5.2;;
40048;SDS011;54524;55.740;37.544;2022-10-23T01:45:17;7.5;;;5;;
40048;SDS011;54524;55.740;37.544;2022-10-23T01:46:18;7.3;;;5;;
40048;SDS011;54524;55.740;37.544;2022-10-23T01:47:22;7.6;;;5;;
40048;SDS011;54524;55.740;37.544;2022-10-23T01:48:24;8.5;;;4.8;;
40048;SDS011;54524;55.740;37.544;2022-10-23T01:49:25;8.5;;;4.9;;
40048;SDS011;54524;55.740;37.544;2022-10-23T01:51:03;7.8;;;5;;
40048;SDS011;54524;55.740;37.544;2022-10-23T01:52:05;8;;;5.1;;
40048;SDS011;54524;55.740;37.544;2022-10-23T01:53:06;7.7;;;5.1;;
40048;SDS011;54524;55.740;37.544;2022-10-23T01:54:08;7.7;;;5.1;;
40048;SDS011;54524;55.740;37.544;2022-10-23T01:55:09;7.7;;;5.1;;
40048;SDS011;54524;55.740;37.544;2022-10-23T01:56:12;7.5;;;5.1;;
40048;SDS011;54524;55.740;37.544;2022-10-23T01:57:15;8.7;;;5.1;;
40048;SDS011;54524;55.740;37.544;2022-10-23T01:58:16;8.6;;;5.1;;
40048;SDS011;54524;55.740;37.544;2022-10-23T01:59:18;8.6;;;5.1;;
40048;SDS011;54524;55.740;37.544;2022-10-23T02:01:04;8.6;;;5;;
40048;SDS011;54524;55.740;37.544;2022-10-23T02:02:05;8.6;;;5;;
40048;SDS011;54524;55.740;37.544;2022-10-23T02:03:06;7.5;;;5;;
40048;SDS011;54524;55.740;37.544;2022-10-23T02:04:09;7.5;;;5;;
40048;SDS011;54524;55.740;37.544;2022-10-23T02:05:13;7.6;;;5;;
40048;SDS011;54524;55.740;37.544;2022-10-23T02:06:15;8.9;;;4.9;;
40048;SDS011;54524;55.740;37.544;2022-10-23T02:07:16;8.7;;;4.8;;
40048;SDS011;54524;55.740;37.544;2022-10-23T02:08:17;8.7;;;4.8;;
40048;SDS011;54524;55.740;37.544;2022-10-23T02:09:17;7.1;;;4.6;;
40048;SDS011;54524;55.740;37.544;2022-10-23T02:11:03;7;;;4.5;;
40048;SDS011;54524;55.740;37.544;2022-10-23T02:12:07;9.4;;;4.8;;
40048;SDS011;54524;55.740;37.544;2022-10-23T02:13:09;9.5;;;4.8;;
40048;SDS011;54524;55.740;37.544;2022-10-23T02:14:12;9.2;;;4.8;;
40048;SDS011;54524;55.740;37.544;2022-10-23T02:15:18;6.8;;;4.5;;
40048;SDS011;54524;55.740;37.544;2022-10-23T02:16:20;6.6;;;4.5;;
40048;SDS011;54524;55.740;37.544;2022-10-23T02:17:25;6.6;;;4.5;;
40048;SDS011;54524;55.740;37.544;2022-10-23T02:18:30;6.4;;;4.7;;
40048;SDS011;54524;55.740;37.544;2022-10-23T02:19:34;6.5;;;4.7;;
40048;SDS011;54524;55.740;37.544;2022-10-23T02:21:04;6.7;;;4.8;;
40048;SDS011;54524;55.740;37.544;2022-10-23T02:22:05;9.2;;;4.7;;
40048;SDS011;54524;55.740;37.544;2022-10-23T02:23:10;9.1;;;4.7;;
40048;SDS011;54524;55.740;37.544;2022-10-23T02:24:15;9;;;4.7;;
40048;SDS011;54524;55.740;37.544;2022-10-23T02:25:19;7.5;;;4.7;;
40048;SDS011;54524;55.740;37.544;2022-10-23T02:26:21;7.6;;;4.7;;
40048;SDS011;54524;55.740;37.544;2022-10-23T02:27:24;7.1;;;4.8;;
40048;SDS011;54524;55.740;37.544;2022-10-23T02:28:26;7.3;;;4.8;;
40048;SDS011;54524;55.740;37.544;2022-10-23T02:29:29;7.4;;;4.8;;
40048;SDS011;54524;55.740;37.544;2022-10-23T02:31:03;6.5;;;4.4;;
40048;SDS011;54524;55.740;37.544;2022-10-23T02:32:04;6.3;;;4.5;;
40048;SDS011;54524;55.740;37.544;2022-10-23T02:33:05;6.3;;;4.5;;
40048;SDS011;54524;55.740;37.544;2022-10-23T02:34:07;7.5;;;4.6;;
40048;SDS011;54524;55.740;37.544;2022-10-23T02:35:08;7.5;;;4.6;;
40048;SDS011;54524;55.740;37.544;2022-10-23T02:36:08;7.5;;;4.7;;
40048;SDS011;54524;55.740;37.544;2022-10-23T02:37:10;8.6;;;4.7;;
40048;SDS011;54524;55.740;37.544;2022-10-23T02:39:13;8.6;;;4.7;;
40048;SDS011;54524;55.740;37.544;2022-10-23T02:41:07;9.8;;;4.7;;
40048;SDS011;54524;55.740;37.544;2022-10-23T02:42:12;9.8;;;4.7;;
40048;SDS011;54524;55.740;37.544;2022-10-23T02:43:18;8.3;;;4.5;;
40048;SDS011;54524;55.740;37.544;2022-10-23T02:44:27;8.4;;;4.5;;
40048;SDS011;54524;55.740;37.544;2022-10-23T02:45:29;8.4;;;4.5;;
40048;SDS011;54524;55.740;37.544;2022-10-23T02:46:33;7.4;;;4.4;;
40048;SDS011;54524;55.740;37.544;2022-10-23T02:47:39;7.9;;;4.4;;
40048;SDS011;54524;55.740;37.544;2022-10-23T02:48:46;7.8;;;4.3;;
40048;SDS011;54524;55.740;37.544;2022-10-23T02:49:50;10.1;;;4.6;;
40048;SDS011;54524;55.740;37.544;2022-10-23T02:51:04;6.30;;;1.20;;
40048;SDS011;54524;55.740;37.544;2022-10-23T02:52:07;8.6;;;4.5;;
40048;SDS011;54524;55.740;37.544;2022-10-23T02:53:12;7.4;;;4.5;;
40048;SDS011;54524;55.740;37.544;2022-10-23T02:54:17;7.4;;;4.5;;
40048;SDS011;54524;55.740;37.544;2022-10-23T02:55:22;7.5;;;4.6;;
40048;SDS011;54524;55.740;37.544;2022-10-23T02:56:29;8.4;;;4.5;;
40048;SDS011;54524;55.740;37.544;2022-10-23T02:57:34;8.5;;;4.6;;
40048;SDS011;54524;55.740;37.544;2022-10-23T02:58:39;6.9;;;4.7;;
40048;SDS011;54524;55.740;37.544;2022-10-23T02:59:42;7.3;;;4.7;;
40048;SDS011;54524;55.740;37.544;2022-10-23T03:01:03;7.4;;;4.7;;
40048;SDS011;54524;55.740;37.544;2022-10-23T03:02:06;8.8;;;5.1;;
40048;SDS011;54524;55.740;37.544;2022-10-23T03:03:08;8.6;;;5;;
40048;SDS011;54524;55.740;37.544;2022-10-23T03:04:10;8.3;;;5;;
40048;SDS011;54524;55.740;37.544;2022-10-23T03:05:13;0;;;0;;
40048;SDS011;54524;55.740;37.544;2022-10-23T03:06:15;8.4;;;5.2;;
40048;SDS011;54524;55.740;37.544;2022-10-23T03:07:17;8.5;;;5.2;;
40048;SDS011;54524;55.740;37.544;2022-10-23T03:08:18;8;;;5;;
40048;SDS011;54524;55.740;37.544;2022-10-23T03:09:19;8.1;;;5;;
40048;SDS011;54524;55.740;37.544;2022-10-23T03:11:02;7.5;;;4.9;;
40048;SDS011;54524;55.740;37.544;2022-10-23T03:12:02;7.1;;;4.9;;
40048;SDS011;54524;55.740;37.544;2022-10-23T03:13:03;7.1;;;4.9;;
40048;SDS011;54524;55.740;37.544;2022-10-23T03:14:04;8;;;4.8;;
40048;SDS011;54524;55.740;37.544;2022-10-23T03:15:05;6.8;;;4.7;;
40048;SDS011;54524;55.740;37.544;2022-10-23T03:16:06;6.9;;;4.7;;
40048;SDS011;54524;55.740;37.544;2022-10-23T03:17:08;11.6;;;5.5;;
40048;SDS011;54524;55.740;37.544;2022-10-23T03:18:08;11.7;;;5.4;;
40048;SDS011;54524;55.740;37.544;2022-10-23T03:19:10;11.7;;;5.3;;
40048;SDS011;54524;55.740;37.544;2022-10-23T03:21:03;8.8;;;5.3;;
40048;SDS011;54524;55.740;37.544;2022-10-23T03:22:04;8.8;;;5.3;;
40048;SDS011;54524;55.740;37.544;2022-10-23T03:23:04;9.4;;;5.2;;
40048;SDS011;54524;55.740;37.544;2022-10-23T03:24:05;9.8;;;5.3;;
40048;SDS011;54524;55.740;37.544;2022-10-23T03:25:06;9.8;;;5.3;;
40048;SDS011;54524;55.740;37.544;2022-10-23T03:26:07;9.5;;;5.3;;
40048;SDS011;54524;55.740;37.544;2022-10-23T03:27:08;9.8;;;5.6;;
40048;SDS011;54524;55.740;37.544;2022-10-23T03:28:10;10.2;;;5.7;;
40048;SDS011;54524;55.740;37.544;2022-10-23T03:29:13;10.4;;;5.7;;
40048;SDS011;54524;55.740;37.544;2022-10-23T03:31:04;9.4;;;5.3;;
40048;SDS011;54524;55.740;37.544;2022-10-23T03:32:05;9.4;;;5.3;;
40048;SDS011;54524;55.740;37.544;2022-10-23T03:33:05;9;;;5.5;;
40048;SDS011;54524;55.740;37.544;2022-10-23T03:34:06;9;;;5.6;;
40048;SDS011;54524;55.740;37.544;2022-10-23T03:35:10;9.2;;;5.6;;
40048;SDS011;54524;55.740;37.544;2022-10-23T03:36:11;7.9;;;5.4;;
40048;SDS011;54524;55.740;37.544;2022-10-23T03:37:12;7.9;;;5.4;;
40048;SDS011;54524;55.740;37.544;2022-10-23T03:38:16;7.8;;;5.4;;
40048;SDS011;54524;55.740;37.544;2022-10-23T03:39:16;10.2;;;5.6;;
40048;SDS011;54524;55.740;37.544;2022-10-23T03:41:02;10.4;;;5.6;;
40048;SDS011;54524;55.740;37.544;2022-10-23T03:42:03;8.8;;;5.7;;
40048;SDS011;54524;55.740;37.544;2022-10-23T03:43:03;9;;;5.8;;
40048;SDS011;54524;55.740;37.544;2022-10-23T03:44:04;9.3;;;5.8;;
40048;SDS011;54524;55.740;37.544;2022-10-23T03:45:05;7.9;;;5.4;;
40048;SDS011;54524;55.740;37.544;2022-10-23T03:46:06;7.9;;;5.4;;
40048;SDS011;54524;55.740;37.544;2022-10-23T03:47:09;7.8;;;5.4;;
40048;SDS011;54524;55.740;37.544;2022-10-23T03:48:11;9.2;;;5.6;;
40048;SDS011;54524;55.740;37.544;2022-10-23T03:49:11;9.4;;;5.6;;
40048;SDS011;54524;55.740;37.544;2022-10-23T03:51:03;9.8;;;5.7;;
40048;SDS011;54524;55.740;37.544;2022-10-23T03:52:04;9.6;;;5.7;;
40048;SDS011;54524;55.740;37.544;2022-10-23T03:53:05;9.2;;;5.7;;
40048;SDS011;54524;55.740;37.544;2022-10-23T03:54:05;0;;;0;;
40048;SDS011;54524;55.740;37.544;2022-10-23T03:55:06;9.7;;;5.9;;
40048;SDS011;54524;55.740;37.544;2022-10-23T03:56:08;9.6;;;5.9;;
40048;SDS011;54524;55.740;37.544;2022-10-23T03:57:09;8.4;;;6.1;;
40048;SDS011;54524;55.740;37.544;2022-10-23T03:58:10;8.4;;;6.1;;
40048;SDS011;54524;55.740;37.544;2022-10-23T03:59:10;8.3;;;6;;
40048;SDS011;54524;55.740;37.544;2022-10-23T04:01:02;10.2;;;6.6;;
40048;SDS011;54524;55.740;37.544;2022-10-23T04:02:03;10.6;;;6.7;;
40048;SDS011;54524;55.740;37.544;2022-10-23T04:03:03;8.9;;;5.9;;
40048;SDS011;54524;55.740;37.544;2022-10-23T04:04:04;8.9;;;5.9;;
40048;SDS011;54524;55.740;37.544;2022-10-23T04:05:04;10.5;;;6;;
40048;SDS011;54524;55.740;37.544;2022-10-23T04:06:05;8.8;;;6.1;;
40048;SDS011;54524;55.740;37.544;2022-10-23T04:07:09;8.8;;;6.1;;
40048;SDS011;54524;55.740;37.544;2022-10-23T04:08:09;8.7;;;6.1;;
40048;SDS011;54524;55.740;37.544;2022-10-23T04:09:10;9.8;;;6.8;;
40048;SDS011;54524;55.740;37.544;2022-10-23T04:11:03;9.1;;;6.6;;
40048;SDS011;54524;55.740;37.544;2022-10-23T04:12:04;9.2;;;6.7;;
40048;SDS011;54524;55.740;37.544;2022-10-23T04:13:04;8.4;;;6.4;;
40048;SDS011;54524;55.740;37.544;2022-10-23T04:14:05;8.5;;;6.5;;
40048;SDS011;54524;55.740;37.544;2022-10-23T04:15:06;8.6;;;6.5;;
40048;SDS011;54524;55.740;37.544;2022-10-23T04:16:06;14.7;;;8.9;;
40048;SDS011;54524;55.740;37.544;2022-10-23T04:17:08;14.5;;;9;;
40048;SDS011;54524;55.740;37.544;2022-10-23T04:18:08;14.7;;;9;;
40048;SDS011;54524;55.740;37.544;2022-10-23T04:19:09;19.9;;;12.7;;
40048;SDS011;54524;55.740;37.544;2022-10-23T04:21:03;20;;;12.9;;
40048;SDS011;54524;55.740;37.544;2022-10-23T04:22:03;10.8;;;7.6;;
40048;SDS011;54524;55.740;37.544;2022-10-23T04:23:04;10.9;;;7.6;;
40048;SDS011;54524;55.740;37.544;2022-10-23T04:24:04;11;;;7.6;;
40048;SDS011;54524;55.740;37.544;2022-10-23T04:25:06;11.9;;;8.2;;
40048;SDS011;54524;55.740;37.544;2022-10-23T04:26:07;12;;;8.2;;
40048;SDS011;54524;55.740;37.544;2022-10-23T04:27:08;12.1;;;8.2;;
40048;SDS011;54524;55.740;37.544;2022-10-23T04:28:08;14.3;;;8.7;;
40048;SDS011;54524;55.740;37.544;2022-10-23T04:29:09;14;;;8.6;;
40048;SDS011;54524;55.740;37.544;2022-10-23T04:31:02;21.1;;;11.6;;
40048;SDS011;54524;55.740;37.544;2022-10-23T04:32:03;21.1;;;11.6;;
40048;SDS011;54524;55.740;37.544;2022-10-23T04:33:03;21;;;11.6;;
40048;SDS011;54524;55.740;37.544;2022-10-23T04:34:04;13.9;;;7.7;;
40048;SDS011;54524;55.740;37.544;2022-10-23T04:35:05;14.6;;;7.6;;
40048;SDS011;54524;55.740;37.544;2022-10-23T04:36:07;14.9;;;7.7;;
40048;SDS011;54524;55.740;37.544;2022-10-23T04:37:08;11.3;;;6.7;;
40048;SDS011;54524;55.740;37.544;2022-10-23T04:38:09;11.3;;;6.8;;
40048;SDS011;54524;55.740;37.544;2022-10-23T04:39:10;11.4;;;6.8;;
40048;SDS011;54524;55.740;37.544;2022-10-23T04:41:03;11.9;;;6.1;;
40048;SDS011;54524;55.740;37.544;2022-10-23T04:42:03;12;;;6.2;;
40048;SDS011;54524;55.740;37.544;2022-10-23T04:43:04;11.5;;;6.9;;
40048;SDS011;54524;55.740;37.544;2022-10-23T04:44:04;11.8;;;6.9;;
40048;SDS011;54524;55.740;37.544;2022-10-23T04:45:05;12.5;;;6.9;;
40048;SDS011;54524;55.740;37.544;2022-10-23T04:46:06;11.3;;;6.2;;
40048;SDS011;54524;55.740;37.544;2022-10-23T04:47:07;10.6;;;6.3;;
40048;SDS011;54524;55.740;37.544;2022-10-23T04:48:08;9.8;;;6.3;;
40048;SDS011;54524;55.740;37.544;2022-10-23T04:49:09;12.6;;;8.1;;
40048;SDS011;54524;55.740;37.544;2022-10-23T04:51:03;12.6;;;8.1;;
40048;SDS011;54524;55.740;37.544;2022-10-23T04:52:04;19.2;;;11.4;;
40048;SDS011;54524;55.740;37.544;2022-10-23T04:53:05;19.4;;;11.5;;
40048;SDS011;54524;55.740;37.544;2022-10-23T04:54:05;20.9;;;11.5;;
40048;SDS011;54524;55.740;37.544;2022-10-23T04:55:06;18.2;;;10.8;;
40048;SDS011;54524;55.740;37.544;2022-10-23T04:56:10;18.2;;;10.8;;
40048;SDS011;54524;55.740;37.544;2022-10-23T04:57:12;18.3;;;10.8;;
40048;SDS011;54524;55.740;37.544;2022-10-23T04:58:13;12.2;;;8.4;;
40048;SDS011;54524;55.740;37.544;2022-10-23T04:59:14;12.3;;;8.3;;
40048;SDS011;54524;55.740;37.544;2022-10-23T05:01:03;12.4;;;8.3;;
40048;SDS011;54524;55.740;37.544;2022-10-23T05:02:06;15.4;;;9.1;;
40048;SDS011;54524;55.740;37.544;2022-10-23T05:03:07;16;;;9.1;;
40048;SDS011;54524;55.740;37.544;2022-10-23T05:04:08;16.1;;;9.1;;
40048;SDS011;54524;55.740;37.544;2022-10-23T05:05:09;12.7;;;8;;
40048;SDS011;54524;55.740;37.544;2022-10-23T05:06:10;12.6;;;8.1;;
40048;SDS011;54524;55.740;37.544;2022-10-23T05:07:11;12.6;;;8.1;;
40048;SDS011;54524;55.740;37.544;2022-10-23T05:08:11;14.5;;;7.9;;
40048;SDS011;54524;55.740;37.544;2022-10-23T05:09:12;14.3;;;7.8;;
40048;SDS011;54524;55.740;37.544;2022-10-23T05:11:03;12.6;;;7.9;;
40048;SDS011;54524;55.740;37.544;2022-10-23T05:12:03;13.1;;;7.9;;
40048;SDS011;54524;55.740;37.544;2022-10-23T05:13:05;13.5;;;7.8;;
40048;SDS011;54524;55.740;37.544;2022-10-23T05:14:06;11.6;;;7.5;;
40048;SDS011;54524;55.740;37.544;2022-10-23T05:15:07;11.5;;;7.5;;
40048;SDS011;54524;55.740;37.544;2022-10-23T05:16:07;12.2;;;7.6;;
40048;SDS011;54524;55.740;37.544;2022-10-23T05:17:10;14.3;;;8.6;;
40048;SDS011;54524;55.740;37.544;2022-10-23T05:18:13;14.3;;;8.7;;
40048;SDS011;54524;55.740;37.544;2022-10-23T05:19:17;14.5;;;8.7;;
40048;SDS011;54524;55.740;37.544;2022-10-23T05:21:04;11.5;;;8.2;;
40048;SDS011;54524;55.740;37.544;2022-10-23T05:22:06;11.5;;;8.1;;
40048;SDS011;54524;55.740;37.544;2022-10-23T05:23:08;14.9;;;8;;
40048;SDS011;54524;55.740;37.544;2022-10-23T05:24:10;14.9;;;8;;
40048;SDS011;54524;55.740;37.544;2022-10-23T05:25:11;15.9;;;7.9;;
40048;SDS011;54524;55.740;37.544;2022-10-23T05:26:12;15.7;;;7.5;;
40048;SDS011;54524;55.740;37.544;2022-10-23T05:27:13;15.6;;;7.5;;
40048;SDS011;54524;55.740;37.544;2022-10-23T05:28:14;14.9;;;7.4;;
40048;SDS011;54524;55.740;37.544;2022-10-23T05:29:14;0;;;0;;
40048;SDS011;54524;55.740;37.544;2022-10-23T05:31:04;12.3;;;7.7;;
40048;SDS011;54524;55.740;37.544;2022-10-23T05:32:05;14.3;;;7.7;;
40048;SDS011;54524;55.740;37.544;2022-10-23T05:33:07;14.1;;;7.7;;
40048;SDS011;54524;55.740;37.544;2022-10-23T05:34:09;14.3;;;7.8;;
40048;SDS011;54524;55.740;37.544;2022-10-23T05:35:11;11.2;;;7.4;;
40048;SDS011;54524;55.740;37.544;2022-10-23T05:36:13;11.1;;;7.4;;
40048;SDS011;54524;55.740;37.544;2022-10-23T05:37:14;11;;;7.4;;
40048;SDS011;54524;55.740;37.544;2022-10-23T05:38:15;12.6;;;7.6;;
40048;SDS011;54524;55.740;37.544;2022-10-23T05:39:17;12.7;;;7.6;;
40048;SDS011;54524;55.740;37.544;2022-10-23T05:41:03;13.7;;;7.2;;
40048;SDS011;54524;55.740;37.544;2022-10-23T05:42:05;13.7;;;7.1;;
40048;SDS011;54524;55.740;37.544;2022-10-23T05:43:06;13.9;;;7.1;;
40048;SDS011;54524;55.740;37.544;2022-10-23T05:44:06;11.7;;;7.3;;
40048;SDS011;54524;55.740;37.544;2022-10-23T05:45:07;12;;;7.2;;
40048;SDS011;54524;55.740;37.544;2022-10-23T05:46:08;12.1;;;7.3;;
40048;SDS011;54524;55.740;37.544;2022-10-23T05:47:10;14.1;;;8.3;;
40048;SDS011;54524;55.740;37.544;2022-10-23T05:48:12;13.9;;;8.3;;
40048;SDS011;54524;55.740;37.544;2022-10-23T05:49:13;14.2;;;8.3;;
40048;SDS011;54524;55.740;37.544;2022-10-23T05:51:03;6.30;;;1.20;;
40048;SDS011;54524;55.740;37.544;2022-10-23T05:52:04;11.5;;;7.8;;
40048;SDS011;54524;55.740;37.544;2022-10-23T05:53:04;12.6;;;8.1;;
40048;SDS011;54524;55.740;37.544;2022-10-23T05:54:05;12.6;;;8.1;;
40048;SDS011;54524;55.740;37.544;2022-10-23T05:55:07;12.5;;;8.1;;
40048;SDS011;54524;55.740;37.544;2022-10-23T05:56:08;12.6;;;8.2;;
40048;SDS011;54524;55.740;37.544;2022-10-23T05:57:10;13.5;;;8.8;;
40048;SDS011;54524;55.740;37.544;2022-10-23T05:58:10;13.5;;;8.8;;
40048;SDS011;54524;55.740;37.544;2022-10-23T05:59:10;21;;;10.9;;
40048;SDS011;54524;55.740;37.544;2022-10-23T06:01:04;20.8;;;10.8;;
40048;SDS011;54524;55.740;37.544;2022-10-23T06:02:05;20.3;;;10.7;;
40048;SDS011;54524;55.740;37.544;2022-10-23T06:03:05;17.3;;;8.7;;
40048;SDS011;54524;55.740;37.544;2022-10-23T06:04:06;17.6;;;8.8;;
40048;SDS011;54524;55.740;37.544;2022-10-23T06:05:07;17.6;;;8.8;;
40048;SDS011;54524;55.740;37.544;2022-10-23T06:06:07;15;;;8.2;;
40048;SDS011;54524;55.740;37.544;2022-10-23T06:07:09;15;;;8.3;;
40048;SDS011;54524;55.740;37.544;2022-10-23T06:08:09;15;;;8.2;;
40048;SDS011;54524;55.740;37.544;2022-10-23T06:09:10;15.2;;;8.5;;
40048;SDS011;54524;55.740;37.544;2022-10-23T06:11:04;15.3;;;8.5;;
40048;SDS011;54524;55.740;37.544;2022-10-23T06:12:05;13.5;;;8.5;;
40048;SDS011;54524;55.740;37.544;2022-10-23T06:13:06;13.1;;;8.5;;
40048;SDS011;54524;55.740;37.544;2022-10-23T06:14:07;13.1;;;8.5;;
40048;SDS011;54524;55.740;37.544;2022-10-23T06:15:08;13.4;;;8.5;;
40048;SDS011;54524;55.740;37.544;2022-10-23T06:16:09;13.4;;;8.5;;
40048;SDS011;54524;55.740;37.544;2022-10-23T06:17:10;13.2;;;8.4;;
40048;SDS011;54524;55.740;37.544;2022-10-23T06:18:11;15.7;;;8.9;;
40048;SDS011;54524;55.740;37.544;2022-10-23T06:19:11;16.2;;;9;;
40048;SDS011;54524;55.740;37.544;2022-10-23T06:21:03;13.2;;;8.4;;
40048;SDS011;54524;55.740;37.544;2022-10-23T06:22:03;13.3;;;8.5;;
40048;SDS011;54524;55.740;37.544;2022-10-23T06:23:04;13.2;;;8.4;;
40048;SDS011;54524;55.740;37.544;2022-10-23T06:24:05;13.7;;;8.2;;
40048;SDS011;54524;55.740;37.544;2022-10-23T06:25:06;14.1;;;8.2;;
40048;SDS011;54524;55.740;37.544;2022-10-23T06:26:08;13.8;;;8.1;;
40048;SDS011;54524;55.740;37.544;2022-10-23T06:27:09;15.1;;;8.6;;
40048;SDS011;54524;55.740;37.544;2022-10-23T06:28:11;15.3;;;8.5;;
40048;SDS011;54524;55.740;37.544;2022-10-23T06:29:11;15.2;;;8.5;;
40048;SDS011;54524;55.740;37.544;2022-10-23T06:31:03;12.5;;;8.6;;
40048;SDS011;54524;55.740;37.544;2022-10-23T06:32:04;12.4;;;8.6;;
40048;SDS011;54524;55.740;37.544;2022-10-23T06:33:04;12.3;;;8.5;;
40048;SDS011;54524;55.740;37.544;2022-10-23T06:34:05;12.2;;;8.5;;
40048;SDS011;54524;55.740;37.544;2022-10-23T06:35:06;12.4;;;8.5;;
40048;SDS011;54524;55.740;37.544;2022-10-23T06:36:08;15.1;;;9.1;;
40048;SDS011;54524;55.740;37.544;2022-10-23T06:37:10;15;;;9.1;;
40048;SDS011;54524;55.740;37.544;2022-10-23T06:38:11;17.2;;;9.2;;
40048;SDS011;54524;55.740;37.544;2022-10-23T06:39:11;27.2;;;17.3;;
40048;SDS011;54524;55.740;37.544;2022-10-23T06:41:03;27.2;;;17.3;;
40048;SDS011;54524;55.740;37.544;2022-10-23T06:42:04;19.6;;;13.3;;
40048;SDS011;54524;55.740;37.544;2022-10-23T06:43:05;19.5;;;13.3;;
40048;SDS011;54524;55.740;37.544;2022-10-23T06:44:05;19.5;;;13.3;;
40048;SDS011;54524;55.740;37.544;2022-10-23T06:45:06;13.8;;;9.5;;
40048;SDS011;54524;55.740;37.544;2022-10-23T06:46:08;13.5;;;9.6;;
40048;SDS011;54524;55.740;37.544;2022-10-23T06:47:09;13.5;;;9.5;;
40048;SDS011;54524;55.740;37.544;2022-10-23T06:48:12;18.4;;;10.4;;